CheckWX is a tool to help pilots better visualize weather data.  It is not intended as a substitute for an official pre-flight weather briefing.

05:06:53 UTC

SEQM TAF
Mariscal Sucre International Airport
Quito, Ecuador
SEQM 222230Z 2300/2324 03004KT 9999 FEW010 SCT030 BKN100 FM230400 00000KT 9999 FEW010 OVC020 FM231300 VRB03KT 9999 FEW026 BKN200 FM231800 36010KT 9999 BKN030 BKN100 TEMPO 2321/2324 SHRA BKN030TCU TX21/2318Z TN12/2311Z

Mar-23@
00:00 UTC

Mar-23 @ 00:00 UTC

Mar-23@
04:00 UTC

Mar-23 @ 04:00 UTC

SEQM 222230Z 2300/2324 03004KT 9999 FEW010 SCT030 BKN100

Expired

Wind
  • 030° at 4 KTS
Cloud Levels
  • Few at 1,000' AGL
  • Scattered at 3,000' AGL
  • Broken at 10,000' AGL

Mar-23@
04:00 UTC

Mar-23 @ 04:00 UTC

Mar-23@
13:00 UTC

Mar-23 @ 13:00 UTC

FM230400 00000KT 9999 FEW010 OVC020

From

From Standard forecast or significant change

Cloud Levels
  • Few at 1,000' AGL
  • Overcast at 2,000' AGL

Mar-23@
13:00 UTC

Mar-23 @ 13:00 UTC

Mar-23@
18:00 UTC

Mar-23 @ 18:00 UTC

FM231300 VRB03KT 9999 FEW026 BKN200

From

From Standard forecast or significant change

Wind
  • Variable at 3 KTS
Cloud Levels
  • Few at 2,600' AGL
  • Broken at 20,000' AGL

Mar-23@
18:00 UTC

Mar-23 @ 18:00 UTC

Mar-24@
00:00 UTC

Mar-24 @ 00:00 UTC

FM231800 36010KT 9999 BKN030 BKN100

From

From Standard forecast or significant change

Wind
  • 360° at 10 KTS
Cloud Levels
  • Broken at 3,000' AGL
  • Broken at 10,000' AGL

Mar-23@
21:00 UTC

Mar-23 @ 21:00 UTC

Mar-24@
00:00 UTC

Mar-24 @ 00:00 UTC

TEMPO 2321/2324 SHRA BKN030TCU TX21/2318Z TN12/2311Z

Temporary

Temporary Changes expected for less than half the time period

Conditions
Rain
Cloud Levels
  • Broken at 3,000' AGL